Time;durP1;ratioP1;P1;durP2;ratioP2;P2;SDS_P1;SDS_P2;PMS_P1;PMS_P2;Temp;Humidity;BMP_temperature;BMP_pressure;BME280_temperature;BME280_humidity;BME280_pressure;Samples;Min_cycle;Max_cycle;Signal;HPM_P1;HPM_P2
2023/10/09 00:01:30;;;;;;;0.88;0.40;;;;;;;18.06;41.59;101843.44;5069218;28;20438;-80
2023/10/09 00:03:56;;;;;;;0.70;0.45;;;;;;;17.71;42.32;101851.31;5068414;28;20885;-78
2023/10/09 00:06:31;;;;;;;0.80;0.50;;;;;;;17.54;42.61;101842.69;5051023;28;20475;-78
2023/10/09 00:09:17;;;;;;;0.70;0.50;;;;;;;17.74;41.88;101846.41;5048530;28;20979;-79
2023/10/09 00:11:44;;;;;;;0.57;0.40;;;;;;;17.68;41.70;101855.22;5050328;28;20388;-77
2023/10/09 00:14:15;;;;;;;0.90;0.60;;;;;;;17.73;41.74;101850.09;5065653;28;20786;-79
2023/10/09 00:16:56;;;;;;;1.50;0.70;;;;;;;17.89;41.24;101861.66;5050613;28;20380;-78
2023/10/09 00:19:32;;;;;;;1.80;0.70;;;;;;;17.93;40.85;101866.47;5066461;28;20384;-77
2023/10/09 00:22:37;;;;;;;0.65;0.40;;;;;;;17.89;40.88;101873.22;5049918;28;20432;-80
2023/10/09 00:25:10;;;;;;;0.75;0.45;;;;;;;17.91;40.87;101857.75;5053104;28;20432;-78
2023/10/09 00:27:46;;;;;;;0.73;0.47;;;;;;;17.85;40.70;101871.09;5049387;28;20395;-79
2023/10/09 00:30:32;;;;;;;0.60;0.40;;;;;;;17.65;41.36;101860.97;5050528;28;20388;-79
2023/10/09 00:33:07;;;;;;;0.90;0.45;;;;;;;17.54;41.61;101873.00;5066143;28;20749;-78
2023/10/09 00:40:52;;;;;;;1.10;0.60;;;;;;;17.57;41.02;101878.00;5050346;28;20442;-78
2023/10/09 00:43:20;;;;;;;0.55;0.40;;;;;;;17.58;40.72;101873.47;5049802;28;20392;-79
2023/10/09 00:45:50;;;;;;;0.82;0.43;;;;;;;17.50;40.62;101878.91;5050654;28;20468;-79
2023/10/09 00:48:36;;;;;;;0.70;0.50;;;;;;;17.38;40.85;101890.13;5047938;28;20838;-81
2023/10/09 00:51:15;;;;;;;1.20;0.77;;;;;;;17.21;41.25;101891.31;5047414;28;20480;-79
2023/10/09 00:53:42;;;;;;;0.77;0.57;;;;;;;16.94;41.91;101888.28;5047836;28;20507;-80
2023/10/09 00:56:28;;;;;;;0.57;0.40;;;;;;;16.74;42.47;101884.44;5030352;28;20409;-78
2023/10/09 00:59:00;;;;;;;2.78;1.33;;;;;;;16.77;42.16;101879.53;5047489;28;20389;-81
2023/10/09 01:01:34;;;;;;;0.38;0.38;;;;;;;16.64;42.47;101887.38;5047823;28;20435;-77
2023/10/09 01:04:14;;;;;;;0.55;0.40;;;;;;;16.57;42.59;101900.63;5047400;28;20377;-77
2023/10/09 01:07:05;;;;;;;0.40;0.30;;;;;;;16.39;43.15;101903.63;5047819;28;20396;-80
2023/10/09 01:09:44;;;;;;;0.40;0.40;;;;;;;16.21;43.72;101916.47;5034224;28;20388;-78
2023/10/09 01:12:21;;;;;;;0.85;0.52;;;;;;;16.11;43.82;101906.00;5033090;28;20428;-78
2023/10/09 01:14:55;;;;;;;0.87;0.50;;;;;;;16.22;43.19;101907.44;5048087;28;20388;-78
2023/10/09 01:17:58;;;;;;;1.35;0.75;;;;;;;15.97;43.40;101920.97;5047412;28;20893;-78
2023/10/09 01:20:29;;;;;;;1.13;0.50;;;;;;;15.93;43.15;101916.97;5046865;28;20562;-77
2023/10/09 01:23:03;;;;;;;1.17;0.57;;;;;;;15.66;43.61;101924.44;5049919;28;20859;-79
2023/10/09 01:25:41;;;;;;;1.60;0.63;;;;;;;15.68;43.55;101929.59;5049912;28;20803;-77
2023/10/09 01:28:07;;;;;;;0.85;0.45;;;;;;;15.60;43.60;101933.16;5065565;28;20952;-79
2023/10/09 01:30:33;;;;;;;1.17;0.60;;;;;;;15.53;43.88;101944.72;5048281;28;20468;-78
2023/10/09 01:33:12;;;;;;;1.25;0.75;;;;;;;15.55;43.37;101951.53;5049667;28;20461;-79
2023/10/09 01:35:47;;;;;;;0.80;0.40;;;;;;;15.32;43.62;101956.78;5048372;28;20400;-77
2023/10/09 01:38:15;;;;;;;1.33;0.77;;;;;;;15.17;43.92;101953.97;5049467;28;20384;-78
2023/10/09 01:40:44;;;;;;;0.73;0.50;;;;;;;15.15;44.21;101960.50;5064188;28;20427;-82
2023/10/09 01:43:10;;;;;;;0.73;0.40;;;;;;;15.31;43.56;101955.13;5064733;28;20389;-80
2023/10/09 01:45:42;;;;;;;0.80;0.47;;;;;;;15.52;43.15;101969.75;5048218;28;20431;-79
2023/10/09 01:48:08;;;;;;;1.00;0.52;;;;;;;15.49;43.05;101974.44;5047962;28;20435;-79
2023/10/09 01:50:36;;;;;;;1.02;0.55;;;;;;;15.51;43.03;101989.47;5048147;28;20384;-80
2023/10/09 01:53:02;;;;;;;1.27;0.67;;;;;;;15.48;43.04;101985.28;5048909;28;20388;-80
2023/10/09 01:55:40;;;;;;;0.97;0.50;;;;;;;15.45;43.38;101986.50;5047625;28;20458;-81
2023/10/09 01:58:32;;;;;;;0.73;0.40;;;;;;;15.32;43.77;101998.69;5049149;28;20486;-79
2023/10/09 02:00:56;;;;;;;1.08;0.60;;;;;;;15.37;43.44;102002.53;5050769;28;20669;-80
2023/10/09 02:03:36;;;;;;;0.77;0.40;;;;;;;15.31;43.94;102003.22;5049202;28;20396;-80
2023/10/09 02:06:17;;;;;;;1.08;0.50;;;;;;;15.31;43.75;102011.22;5063473;28;20401;-80
2023/10/09 02:08:49;;;;;;;0.75;0.40;;;;;;;15.35;43.58;101999.19;5048880;28;20416;-81
2023/10/09 02:11:29;;;;;;;0.63;0.40;;;;;;;15.36;43.46;102005.38;5048841;28;20385;-80
2023/10/09 02:14:00;;;;;;;1.00;0.50;;;;;;;15.18;43.79;102014.41;5033473;28;20388;-78
2023/10/09 02:16:29;;;;;;;0.95;0.55;;;;;;;15.08;43.91;102013.75;5047230;28;20541;-80
2023/10/09 02:19:07;;;;;;;0.80;0.50;;;;;;;15.09;43.98;102015.44;5048616;28;20458;-77
2023/10/09 02:21:42;;;;;;;0.88;0.45;;;;;;;14.97;44.03;102012.25;5048716;28;20509;-79
2023/10/09 02:24:26;;;;;;;0.75;0.50;;;;;;;14.91;43.95;102026.28;5047961;28;20389;-78
2023/10/09 02:29:23;;;;;;;0.90;0.57;;;;;;;15.03;43.39;102014.25;5048785;28;20400;-79
2023/10/09 02:32:00;;;;;;;1.23;0.50;;;;;;;14.99;43.43;102004.91;5046646;28;20381;-87
2023/10/09 02:34:30;;;;;;;0.93;0.50;;;;;;;15.09;43.07;102010.91;5062312;28;20472;-80
2023/10/09 02:37:05;;;;;;;1.83;0.82;;;;;;;15.00;43.12;102011.94;5049799;28;20392;-80
2023/10/09 02:39:43;;;;;;;1.02;0.52;;;;;;;15.14;43.23;102012.25;5047171;28;20836;-78
2023/10/09 02:44:40;;;;;;;0.80;0.43;;;;;;;15.39;42.24;102021.88;5048860;28;20384;-77
2023/10/09 02:47:17;;;;;;;0.93;0.50;;;;;;;15.38;42.41;102020.25;5049021;28;20931;-77
2023/10/09 02:49:44;;;;;;;0.82;0.40;;;;;;;15.42;42.21;102032.25;5048458;28;20420;-77
2023/10/09 02:52:17;;;;;;;1.25;0.57;;;;;;;15.34;42.40;102034.94;5048327;28;20424;-79
2023/10/09 02:54:46;;;;;;;1.20;0.50;;;;;;;15.21;42.94;102042.63;5046723;28;20399;-79
2023/10/09 02:57:21;;;;;;;1.13;0.55;;;;;;;15.05;43.34;102038.97;5046200;28;20474;-80
2023/10/09 02:59:47;;;;;;;1.63;0.80;;;;;;;15.09;43.49;102042.97;5048314;28;20388;-79
2023/10/09 03:02:13;;;;;;;1.30;0.52;;;;;;;15.04;43.44;102028.44;5046721;28;20404;-80
2023/10/09 03:04:41;;;;;;;1.50;0.63;;;;;;;15.02;43.31;102035.81;5046312;28;20400;-79
2023/10/09 03:07:11;;;;;;;1.27;0.52;;;;;;;14.73;44.04;102034.44;5047399;28;20407;-80
2023/10/09 03:09:37;;;;;;;1.47;0.80;;;;;;;14.67;44.31;102035.91;5048074;28;20379;-80
2023/10/09 03:12:05;;;;;;;1.00;0.50;;;;;;;14.81;43.89;102042.44;5045829;28;20385;-80
2023/10/09 03:14:35;;;;;;;1.35;0.60;;;;;;;14.82;43.98;102041.47;5047554;28;20396;-81
2023/10/09 03:17:02;;;;;;;1.15;0.65;;;;;;;14.61;44.12;102039.25;5062750;28;20787;-81
2023/10/09 03:19:39;;;;;;;0.77;0.40;;;;;;;14.55;44.33;102047.88;5046015;28;20899;-81
2023/10/09 03:22:10;;;;;;;1.17;0.47;;;;;;;14.54;44.28;102046.22;5038095;28;20928;-81
2023/10/09 03:24:36;;;;;;;1.60;0.82;;;;;;;14.58;44.19;102042.25;5041987;28;20382;-81
2023/10/09 03:27:03;;;;;;;1.00;0.45;;;;;;;14.59;44.11;102045.75;5029581;28;20541;-80
2023/10/09 03:29:28;;;;;;;0.95;0.40;;;;;;;14.62;43.86;102040.94;5043520;28;20408;-79
2023/10/09 03:31:56;;;;;;;1.00;0.40;;;;;;;14.59;43.79;102038.59;5052269;28;20393;-81
2023/10/09 03:34:23;;;;;;;0.70;0.40;;;;;;;14.33;44.54;102049.31;5051801;28;20782;-82
2023/10/09 03:37:03;;;;;;;1.73;0.70;;;;;;;14.26;44.66;102040.28;5046750;28;20536;-78
2023/10/09 03:42:05;;;;;;;0.93;0.40;;;;;;;14.27;44.48;102040.13;5048428;28;20412;-81
2023/10/09 03:44:41;;;;;;;0.80;0.30;;;;;;;14.23;44.27;102045.97;5063689;28;20380;-82
2023/10/09 03:47:09;;;;;;;1.40;0.57;;;;;;;14.17;44.38;102050.13;5048665;28;20442;-81
2023/10/09 03:49:39;;;;;;;1.97;0.57;;;;;;;14.15;44.55;102041.41;5063394;28;20404;-79
2023/10/09 03:52:11;;;;;;;1.25;0.50;;;;;;;14.15;44.39;102046.75;5064559;28;20384;-79
2023/10/09 03:54:38;;;;;;;1.70;0.53;;;;;;;13.88;44.68;102053.13;5063146;28;20404;-80
2023/10/09 03:57:03;;;;;;;1.25;0.40;;;;;;;13.86;44.75;102057.78;5046874;28;20417;-81
2023/10/09 03:59:32;;;;;;;1.27;0.47;;;;;;;13.89;44.69;102068.97;5048667;28;20384;-79
2023/10/09 04:01:58;;;;;;;1.23;0.40;;;;;;;13.62;45.13;102072.63;5047903;28;20415;-80
2023/10/09 04:04:31;;;;;;;0.50;0.20;;;;;;;13.65;45.02;102072.34;5047388;28;20448;-81
2023/10/09 04:06:59;;;;;;;0.98;0.40;;;;;;;13.70;44.53;102077.19;5031297;28;20408;-82
2023/10/09 04:17:36;;;;;;;0.80;0.38;;;;;;;13.37;44.99;102093.78;5047174;28;20504;-80
2023/10/09 04:23:05;;;;;;;0.82;0.55;;;;;;;13.29;45.44;102099.00;5048382;28;20462;-78
2023/10/09 04:25:42;;;;;;;0.80;0.40;;;;;;;13.16;45.44;102091.41;5018297;28;20401;-80
2023/10/09 04:30:42;;;;;;;0.93;0.40;;;;;;;13.24;45.15;102098.63;5050259;28;20416;-80
2023/10/09 04:33:28;;;;;;;0.75;0.32;;;;;;;13.21;45.29;102112.25;5067978;28;20533;-78
2023/10/09 04:36:22;;;;;;;0.88;0.40;;;;;;;13.22;45.36;102111.28;5052036;28;20381;-81
2023/10/09 04:39:14;;;;;;;0.93;0.40;;;;;;;13.36;44.98;102104.56;5052905;28;20496;-79
2023/10/09 04:53:22;;;;;;;1.42;0.60;;;;;;;13.41;44.52;102098.78;5041859;28;20412;-78
2023/10/09 04:55:19;;;;;;;1.13;0.50;;;;;;;13.47;44.50;102112.34;5038896;28;20432;-78
2023/10/09 04:58:01;;;;;;;0.60;0.30;;;;;;;13.54;44.41;102104.53;5051049;28;20499;-79
2023/10/09 05:02:59;;;;;;;1.53;0.60;;;;;;;13.58;44.30;102119.25;5052771;28;20384;-80
2023/10/09 05:08:32;;;;;;;0.80;0.32;;;;;;;13.68;44.15;102119.97;5052695;28;20484;-79
2023/10/09 05:11:34;;;;;;;1.37;0.73;;;;;;;13.68;44.47;102130.63;5067964;28;20397;-80
2023/10/09 05:14:13;;;;;;;1.70;0.60;;;;;;;13.71;44.09;102125.00;5053972;28;20421;-79
2023/10/09 05:16:54;;;;;;;1.65;0.73;;;;;;;13.72;43.99;102121.34;5054670;28;20381;-79
2023/10/09 05:19:41;;;;;;;1.13;0.45;;;;;;;13.62;44.40;102128.59;5042169;22;20440;-78
2023/10/09 05:22:29;;;;;;;0.90;0.40;;;;;;;13.62;44.34;102139.25;5014669;28;20402;-79
2023/10/09 05:25:01;;;;;;;1.30;0.60;;;;;;;13.68;44.44;102141.28;5016326;28;20461;-77
2023/10/09 05:30:25;;;;;;;1.25;0.50;;;;;;;13.55;44.73;102151.53;5029949;28;20377;-78
2023/10/09 05:36:04;;;;;;;1.13;0.60;;;;;;;13.47;45.13;102162.09;5030449;28;20448;-79
2023/10/09 05:38:30;;;;;;;0.63;0.30;;;;;;;13.28;45.54;102155.09;4983400;28;20805;-79
2023/10/09 05:41:31;;;;;;;0.90;0.60;;;;;;;13.10;45.99;102163.91;5012153;28;20451;-78
2023/10/09 05:46:35;;;;;;;1.20;0.80;;;;;;;13.28;45.88;102176.38;5012531;28;20407;-81
2023/10/09 05:49:09;;;;;;;1.55;0.73;;;;;;;13.34;45.67;102173.13;4970656;28;20941;-80
2023/10/09 05:51:41;;;;;;;1.10;0.50;;;;;;;13.46;45.42;102181.75;4972493;28;20392;-80
2023/10/09 05:58:42;;;;;;;0.40;0.30;;;;;;;13.34;45.78;102166.00;4955494;28;20398;-77
2023/10/09 06:05:40;;;;;;;0.47;0.35;;;;;;;13.74;45.43;102187.81;4972017;28;20482;-80
2023/10/09 06:08:06;;;;;;;0.98;0.80;;;;;;;13.48;45.53;102179.75;4959782;28;20399;-83
2023/10/09 06:10:41;;;;;;;0.40;0.32;;;;;;;13.35;45.82;102196.13;4975227;28;20491;-82
2023/10/09 06:13:07;;;;;;;1.15;1.05;;;;;;;13.31;46.11;102194.78;4966711;28;20401;-81
2023/10/09 06:18:25;;;;;;;0.52;0.32;;;;;;;13.53;46.18;102209.44;4990826;28;20417;-82
2023/10/09 06:21:09;;;;;;;0.80;0.50;;;;;;;13.53;45.99;102212.13;5008384;28;20450;-82
2023/10/09 06:26:26;;;;;;;0.40;0.30;;;;;;;13.77;45.70;102219.47;5008419;28;20382;-82
2023/10/09 06:29:13;;;;;;;0.55;0.30;;;;;;;13.76;45.94;102212.50;5012732;28;20400;-82
2023/10/09 06:32:16;;;;;;;0.28;0.20;;;;;;;13.98;45.60;102221.81;5009471;28;20403;-81
2023/10/09 06:34:45;;;;;;;0.60;0.30;;;;;;;14.11;44.97;102227.56;5008989;28;20442;-81
2023/10/09 06:38:10;;;;;;;0.60;0.30;;;;;;;14.22;44.86;102217.63;5029049;28;20454;-83
2023/10/09 06:42:51;;;;;;;0.40;0.30;;;;;;;14.41;44.49;102229.94;5006399;28;20383;-83
2023/10/09 06:45:43;;;;;;;1.70;1.27;;;;;;;14.46;44.88;102239.13;5009593;28;20495;-85
2023/10/09 06:48:09;;;;;;;0.33;0.23;;;;;;;14.56;44.20;102232.84;5012031;28;20400;-82
2023/10/09 06:53:25;;;;;;;0.40;0.30;;;;;;;14.58;44.25;102245.06;5010278;28;20465;-81
2023/10/09 06:55:51;;;;;;;0.77;0.43;;;;;;;14.45;44.46;102240.13;5011386;28;20392;-81
2023/10/09 06:58:41;;;;;;;0.60;0.40;;;;;;;14.71;44.05;102236.59;5009800;28;20400;-81
2023/10/09 07:01:28;;;;;;;0.40;0.30;;;;;;;14.72;43.81;102233.78;5011524;28;20396;-84
2023/10/09 07:04:10;;;;;;;0.30;0.28;;;;;;;14.68;43.59;102235.09;5011284;28;20415;-84
2023/10/09 07:17:23;;;;;;;0.15;0.10;;;;;;;15.39;42.13;102232.97;4991791;28;20393;-87
2023/10/09 07:20:09;;;;;;;0.35;0.30;;;;;;;15.52;42.01;102226.31;4990100;28;20421;-86
2023/10/09 07:22:39;;;;;;;0.60;0.40;;;;;;;15.52;41.89;102223.66;4987101;28;20583;-88
2023/10/09 07:25:27;;;;;;;0.40;0.30;;;;;;;15.61;41.52;102225.31;4977963;28;20408;-87
2023/10/09 07:27:55;;;;;;;0.32;0.30;;;;;;;15.47;41.30;102224.16;4998487;28;20426;-88
2023/10/09 07:48:56;;;;;;;0.63;0.40;;;;;;;16.08;39.75;102254.13;4998086;28;20387;-86
2023/10/09 07:51:23;;;;;;;0.57;0.40;;;;;;;15.79;39.51;102252.78;5010685;28;20395;-86
2023/10/09 07:53:56;;;;;;;0.80;0.50;;;;;;;15.80;39.44;102248.25;5026134;28;20390;-87
2023/10/09 07:56:30;;;;;;;0.30;0.20;;;;;;;15.98;39.46;102240.06;5021041;28;20395;-86
2023/10/09 07:59:00;;;;;;;0.22;0.20;;;;;;;16.10;39.11;102252.09;5022949;28;20744;-87
2023/10/09 08:01:38;;;;;;;0.20;0.20;;;;;;;16.14;39.03;102247.25;5000078;28;20415;-88
2023/10/09 08:04:20;;;;;;;0.40;0.40;;;;;;;16.35;38.97;102249.38;5030135;28;20411;-84
2023/10/09 08:06:47;;;;;;;0.82;0.60;;;;;;;16.60;39.05;102239.44;5001377;28;20408;-87
2023/10/09 08:17:20;;;;;;;0.20;0.20;;;;;;;17.26;39.21;102228.44;5014852;28;20415;-83
2023/10/09 08:19:54;;;;;;;0.52;0.30;;;;;;;17.24;38.78;102207.19;5034643;28;20425;-87
2023/10/09 08:25:27;;;;;;;0.45;0.40;;;;;;;17.32;38.32;102212.50;5022875;28;20904;-84
2023/10/09 08:36:03;;;;;;;0.28;0.28;;;;;;;17.49;37.26;102207.03;5036008;28;20832;-84
2023/10/09 08:38:36;;;;;;;0.20;0.20;;;;;;;17.56;37.50;102202.59;5019181;28;20529;-85
2023/10/09 08:41:19;;;;;;;0.30;0.30;;;;;;;17.66;37.29;102200.50;5017603;28;20477;-86
2023/10/09 08:43:53;;;;;;;0.20;0.20;;;;;;;17.85;37.28;102187.59;5018780;28;20387;-86
2023/10/09 08:46:20;;;;;;;0.25;0.25;;;;;;;17.94;37.18;102197.28;5018867;28;20566;-83
2023/10/09 08:49:05;;;;;;;0.30;0.30;;;;;;;17.97;37.15;102191.56;5036234;28;20425;-87
2023/10/09 08:51:32;;;;;;;0.55;0.30;;;;;;;18.02;36.94;102191.81;4988419;28;20391;-88
2023/10/09 08:53:59;;;;;;;0.70;0.40;;;;;;;18.08;37.05;102190.28;5003741;28;20398;-85
2023/10/09 08:56:24;;;;;;;0.30;0.30;;;;;;;18.05;36.81;102180.72;5037325;28;20390;-86
2023/10/09 08:59:05;;;;;;;0.40;0.40;;;;;;;18.08;36.46;102190.28;5019071;28;20440;-86
2023/10/09 09:01:32;;;;;;;0.50;0.40;;;;;;;18.04;36.25;102173.69;5018742;28;20503;-86
2023/10/09 09:03:59;;;;;;;0.50;0.50;;;;;;;18.11;36.06;102171.94;5033634;28;20390;-86
2023/10/09 09:06:25;;;;;;;0.43;0.40;;;;;;;17.99;35.99;102162.69;5018219;28;20390;-86
2023/10/09 09:08:59;;;;;;;0.40;0.38;;;;;;;17.86;35.93;102157.09;5034048;28;21150;-86
2023/10/09 09:11:25;;;;;;;0.20;0.20;;;;;;;17.93;36.24;102161.56;5001911;28;20414;-86
2023/10/09 09:13:54;;;;;;;0.40;0.30;;;;;;;18.13;36.61;102137.72;5035294;28;20713;-85
2023/10/09 09:16:30;;;;;;;0.17;0.17;;;;;;;18.18;35.96;102122.88;5016457;28;20813;-85
2023/10/09 09:19:17;;;;;;;0.25;0.25;;;;;;;18.28;35.87;102105.47;5020584;28;20479;-85
2023/10/09 09:21:54;;;;;;;0.30;0.20;;;;;;;18.32;36.01;102127.41;4973328;28;20470;-85
2023/10/09 09:26:47;;;;;;;0.30;0.20;;;;;;;18.49;36.24;102120.81;4974487;28;20411;-85
2023/10/09 09:29:18;;;;;;;0.30;0.20;;;;;;;18.78;36.46;102121.78;4956698;28;20395;-86
2023/10/09 09:32:15;;;;;;;0.63;0.47;;;;;;;18.19;35.56;102103.09;4958589;28;20494;-85
2023/10/09 09:34:59;;;;;;;0.10;0.10;;;;;;;17.36;36.54;102117.31;4973634;28;20419;-85
2023/10/09 09:37:29;;;;;;;0.45;0.35;;;;;;;17.63;36.47;102107.03;4957083;28;20407;-81
2023/10/09 09:40:14;;;;;;;0.25;0.20;;;;;;;17.89;36.06;102103.91;4956370;28;20398;-83
2023/10/09 09:42:48;;;;;;;0.38;0.38;;;;;;;18.10;35.76;102105.88;4973878;28;20546;-83
2023/10/09 09:45:23;;;;;;;0.20;0.20;;;;;;;18.22;35.55;102126.84;4974022;28;20423;-81
2023/10/09 09:47:54;;;;;;;0.30;0.20;;;;;;;18.40;35.43;102113.03;4973284;28;20759;-82
2023/10/09 09:50:26;;;;;;;0.20;0.20;;;;;;;18.40;34.91;102107.69;4958274;28;20953;-82
2023/10/09 09:53:17;;;;;;;0.32;0.32;;;;;;;18.36;34.76;102101.84;4974297;28;20391;-81
2023/10/09 09:56:02;;;;;;;0.38;0.28;;;;;;;18.46;34.59;102106.94;4973559;28;20408;-82
2023/10/09 09:58:41;;;;;;;0.20;0.20;;;;;;;18.48;34.52;102091.47;4963585;28;20464;-82
2023/10/09 10:01:16;;;;;;;0.50;0.40;;;;;;;18.61;34.38;102078.19;5017198;28;20422;-82
2023/10/09 10:03:50;;;;;;;0.50;0.40;;;;;;;18.77;34.40;102084.34;5034050;28;20394;-83
2023/10/09 10:06:26;;;;;;;0.63;0.35;;;;;;;18.80;34.47;102074.06;4999305;28;20390;-84
2023/10/09 10:08:53;;;;;;;0.55;0.40;;;;;;;18.62;33.89;102061.06;4983713;28;20471;-83
2023/10/09 10:11:52;;;;;;;0.50;0.35;;;;;;;18.78;34.10;102060.00;5032912;28;20394;-83
2023/10/09 10:14:31;;;;;;;0.70;0.40;;;;;;;18.57;34.19;102050.06;4990093;28;20397;-81
2023/10/09 10:17:16;;;;;;;0.35;0.30;;;;;;;18.63;33.73;102045.78;4976415;28;20402;-82
2023/10/09 10:22:47;;;;;;;0.50;0.50;;;;;;;18.97;34.06;102042.41;4964330;28;20401;-82
2023/10/09 10:25:42;;;;;;;0.10;0.10;;;;;;;19.26;34.11;102029.81;5005854;28;20406;-85
2023/10/09 10:28:49;;;;;;;;;;;;;;;;;;;;;
2023/10/09 10:31:13;;;;;;;0.33;0.20;;;;;;;19.44;33.74;102022.06;4989657;28;20428;-83
2023/10/09 10:34:01;;;;;;;0.43;0.30;;;;;;;19.60;33.97;102006.66;4991485;28;20421;-82
2023/10/09 10:36:28;;;;;;;0.80;0.50;;;;;;;19.73;33.98;102000.53;4975427;28;20404;-82
2023/10/09 10:39:19;;;;;;;0.60;0.40;;;;;;;19.70;33.84;101982.09;4992638;28;20408;-83
2023/10/09 10:41:57;;;;;;;0.80;0.38;;;;;;;19.72;33.31;101975.50;5014819;28;20447;-82
2023/10/09 10:44:38;;;;;;;0.70;0.38;;;;;;;19.74;32.96;101972.63;4979363;28;21273;-82
2023/10/09 10:47:34;;;;;;;0.50;0.30;;;;;;;19.73;33.24;101966.41;4995425;28;20400;-83
2023/10/09 10:50:34;;;;;;;0.40;0.30;;;;;;;19.74;32.93;101956.50;4995858;28;20388;-82
2023/10/09 10:52:57;;;;;;;0.57;0.27;;;;;;;19.85;32.53;101956.72;5015920;28;20384;-84
2023/10/09 10:58:00;;;;;;;0.52;0.30;;;;;;;19.97;33.04;101940.84;5013172;28;20407;-82
2023/10/09 11:03:35;;;;;;;0.60;0.40;;;;;;;19.86;32.15;101928.81;5001295;28;20442;-83
2023/10/09 11:06:13;;;;;;;0.80;0.40;;;;;;;19.95;31.67;101926.75;5014253;28;20407;-83
2023/10/09 11:09:08;;;;;;;0.20;0.10;;;;;;;19.78;31.08;101923.59;5014093;28;20392;-85
2023/10/09 11:11:46;;;;;;;0.50;0.30;;;;;;;19.95;31.75;101905.22;5000801;28;20465;-81
2023/10/09 11:14:23;;;;;;;0.47;0.30;;;;;;;20.19;31.81;101901.13;4994359;28;20790;-83
2023/10/09 11:16:50;;;;;;;0.45;0.25;;;;;;;20.38;32.08;101895.97;5015914;28;20410;-82
2023/10/09 11:22:38;;;;;;;0.55;0.32;;;;;;;20.43;30.60;101883.53;4995264;28;20779;-82
2023/10/09 11:25:13;;;;;;;0.90;0.40;;;;;;;20.34;31.01;101865.91;5011240;28;20776;-82
2023/10/09 11:27:50;;;;;;;0.95;0.47;;;;;;;20.39;30.02;101873.38;4993520;28;20411;-82
2023/10/09 11:30:26;;;;;;;1.20;0.55;;;;;;;20.12;29.49;101859.91;5012320;28;20380;-81
2023/10/09 11:33:07;;;;;;;2.05;0.88;;;;;;;19.82;29.54;101841.41;5011050;28;20926;-84
2023/10/09 11:35:34;;;;;;;0.82;0.35;;;;;;;19.89;29.31;101835.25;4994935;28;20450;-83
2023/10/09 11:38:20;;;;;;;0.70;0.30;;;;;;;20.03;29.68;101834.22;5011818;28;20387;-87
2023/10/09 11:43:25;;;;;;;0.65;0.30;;;;;;;20.56;29.99;101818.06;5013566;28;20403;-82
2023/10/09 11:45:56;;;;;;;1.33;0.60;;;;;;;20.76;30.02;101822.59;5011889;28;20404;-84
2023/10/09 11:48:59;;;;;;;0.85;0.45;;;;;;;20.75;30.01;101802.09;5011849;28;20505;-83
2023/10/09 11:51:22;;;;;;;1.60;0.60;;;;;;;20.41;28.19;101799.41;4997117;28;20834;-82
2023/10/09 11:54:02;;;;;;;0.70;0.38;;;;;;;20.11;28.47;101803.56;4996166;28;20887;-84
2023/10/09 11:56:33;;;;;;;1.15;0.60;;;;;;;20.04;28.43;101793.66;5011874;28;20391;-86
2023/10/09 11:59:08;;;;;;;1.00;0.50;;;;;;;20.28;28.38;101791.38;5012833;28;20396;-84
2023/10/09 12:01:42;;;;;;;0.45;0.20;;;;;;;20.45;27.82;101789.06;4962662;28;20455;-82
2023/10/09 12:04:09;;;;;;;0.90;0.45;;;;;;;20.21;27.56;101785.16;5012182;28;20383;-82
2023/10/09 12:06:36;;;;;;;1.13;0.50;;;;;;;20.24;28.18;101763.22;5011450;28;20384;-81
2023/10/09 12:09:05;;;;;;;0.98;0.50;;;;;;;20.64;28.81;101757.78;5011337;28;20384;-83
2023/10/09 12:11:31;;;;;;;0.95;0.40;;;;;;;20.94;28.78;101765.34;4994342;28;20465;-83
2023/10/09 12:13:57;;;;;;;0.57;0.27;;;;;;;21.00;28.74;101748.31;5012786;28;20471;-82
2023/10/09 12:16:32;;;;;;;0.25;0.17;;;;;;;21.07;28.59;101756.34;4997380;28;20574;-83
2023/10/09 12:19:24;;;;;;;0.35;0.20;;;;;;;20.65;27.88;101750.50;4995871;28;20433;-85
2023/10/09 12:22:00;;;;;;;0.65;0.30;;;;;;;20.84;28.54;101721.84;5009510;28;20475;-83
2023/10/09 12:25:09;;;;;;;0.53;0.30;;;;;;;21.21;28.74;101725.59;5004776;28;20394;-83
2023/10/09 12:27:35;;;;;;;1.33;0.55;;;;;;;21.37;28.81;101726.94;4991832;28;20901;-82
2023/10/09 12:30:03;;;;;;;1.40;0.43;;;;;;;21.39;28.44;101711.38;4990656;28;20389;-81
2023/10/09 12:32:29;;;;;;;0.85;0.30;;;;;;;21.50;28.50;101708.03;4992896;28;20916;-82
2023/10/09 12:34:56;;;;;;;0.57;0.30;;;;;;;21.46;28.21;101700.56;4990520;28;20487;-82
2023/10/09 12:37:22;;;;;;;1.45;0.50;;;;;;;21.49;28.69;101692.88;4992012;28;20390;-82
2023/10/09 12:39:55;;;;;;;1.23;0.50;;;;;;;21.45;28.53;101682.72;5006226;28;20484;-86
2023/10/09 12:42:22;;;;;;;1.02;0.50;;;;;;;21.33;28.74;101688.81;4990763;28;20397;-81
2023/10/09 12:44:48;;;;;;;0.80;0.30;;;;;;;21.34;28.94;101685.06;4990177;28;20405;-82
2023/10/09 12:47:14;;;;;;;1.00;0.47;;;;;;;21.43;29.06;101671.31;4991587;28;20924;-81
2023/10/09 12:49:43;;;;;;;1.00;0.50;;;;;;;21.44;28.89;101670.28;4991482;28;20420;-81
2023/10/09 12:52:16;;;;;;;0.88;0.43;;;;;;;21.42;28.53;101672.38;4992770;28;20903;-80
2023/10/09 12:54:48;;;;;;;1.23;0.70;;;;;;;21.17;27.89;101665.06;4993815;28;20390;-82
2023/10/09 12:57:17;;;;;;;1.00;0.40;;;;;;;21.23;28.41;101658.81;4995060;28;20483;-81
2023/10/09 12:59:45;;;;;;;0.52;0.22;;;;;;;21.32;28.79;101653.94;4996361;28;21044;-81
2023/10/09 13:02:28;;;;;;;1.00;0.40;;;;;;;21.36;28.79;101634.44;5012543;28;20451;-81
2023/10/09 13:04:59;;;;;;;1.50;0.68;;;;;;;21.35;28.99;101632.78;4997930;28;20486;-82
2023/10/09 13:07:26;;;;;;;1.17;0.47;;;;;;;21.27;28.75;101616.06;5012292;28;20495;-81
2023/10/09 13:10:12;;;;;;;1.10;0.40;;;;;;;21.19;28.56;101607.19;4995345;28;20411;-81
2023/10/09 13:12:42;;;;;;;0.95;0.40;;;;;;;21.24;28.49;101611.09;5011761;28;20454;-81
2023/10/09 13:15:13;;;;;;;1.20;0.50;;;;;;;21.38;28.68;101605.38;5011528;28;20384;-81
2023/10/09 13:17:42;;;;;;;0.65;0.30;;;;;;;21.39;28.68;101598.09;4981127;28;20492;-80
2023/10/09 13:20:14;;;;;;;0.70;0.30;;;;;;;21.43;28.78;101596.63;4994770;28;20491;-81
2023/10/09 13:22:41;;;;;;;1.10;0.43;;;;;;;21.36;28.82;101601.25;4994744;28;20443;-81
2023/10/09 13:25:16;;;;;;;0.73;0.30;;;;;;;21.41;28.93;101601.41;5011133;28;20388;-82
2023/10/09 13:27:50;;;;;;;1.05;0.40;;;;;;;21.43;28.62;101590.38;4978582;28;20774;-82
2023/10/09 13:30:23;;;;;;;0.55;0.45;;;;;;;21.45;28.80;101581.06;4996382;28;20408;-83
2023/10/09 13:32:50;;;;;;;1.13;0.60;;;;;;;21.42;29.00;101578.78;5011801;28;20395;-81
2023/10/09 13:35:19;;;;;;;0.60;0.30;;;;;;;21.35;28.85;101576.13;4994147;28;20404;-80
2023/10/09 13:37:53;;;;;;;1.48;0.50;;;;;;;21.32;29.06;101570.34;4978643;28;20466;-81
2023/10/09 13:40:27;;;;;;;0.50;0.27;;;;;;;21.34;28.71;101571.81;4995499;28;20388;-82
2023/10/09 13:42:58;;;;;;;2.17;0.60;;;;;;;21.39;28.70;101565.72;4996016;28;21023;-83
2023/10/09 13:45:28;;;;;;;1.10;0.40;;;;;;;21.45;28.49;101561.34;5011650;28;20475;-82
2023/10/09 13:47:57;;;;;;;0.88;0.40;;;;;;;21.40;28.53;101553.91;5010839;28;20385;-81
2023/10/09 13:50:32;;;;;;;1.15;0.40;;;;;;;21.43;28.30;101539.97;4992432;28;20425;-82
2023/10/09 13:52:59;;;;;;;1.63;0.60;;;;;;;21.48;28.40;101545.56;4993697;28;20442;-81
2023/10/09 13:55:31;;;;;;;0.98;0.40;;;;;;;21.61;28.49;101541.91;4992881;28;20531;-81
2023/10/09 13:57:58;;;;;;;1.17;0.50;;;;;;;21.60;28.37;101534.03;4992754;28;20759;-83
2023/10/09 14:00:34;;;;;;;1.10;0.50;;;;;;;21.60;28.44;101523.25;4993830;28;20833;-83
2023/10/09 14:03:19;;;;;;;1.58;0.50;;;;;;;21.48;28.42;101517.75;4992001;28;20402;-82
2023/10/09 14:05:56;;;;;;;1.63;0.60;;;;;;;21.48;28.57;101523.16;4991588;28;20397;-81
2023/10/09 14:08:22;;;;;;;1.30;0.50;;;;;;;21.41;28.21;101519.66;4992509;28;20426;-80
2023/10/09 14:10:49;;;;;;;1.70;0.60;;;;;;;21.40;28.39;101510.75;4991912;28;20398;-80
2023/10/09 14:13:25;;;;;;;1.70;0.70;;;;;;;21.36;28.55;101507.66;4990697;28;20447;-81
2023/10/09 14:15:54;;;;;;;1.60;0.55;;;;;;;21.42;28.66;101516.75;4994193;28;20390;-81
2023/10/09 14:18:23;;;;;;;0.70;0.30;;;;;;;21.24;29.12;101514.84;4977463;28;20514;-81